Time;durP1;ratioP1;P1;durP2;ratioP2;P2;SDS_P1;SDS_P2;PMS_P1;PMS_P2;Temp;Humidity;BMP_temperature;BMP_pressure;BME280_temperature;BME280_humidity;BME280_pressure;Samples;Min_cycle;Max_cycle;Signal;HPM_P1;HPM_P2
2020/12/01 00:01:52;;;;;;;4.35;1.85;;;;;;;;;;5032773;28;20203;-63
2020/12/01 00:04:18;;;;;;;1.40;1.40;;;;;;;;;;5032737;28;20168;-63
2020/12/01 00:06:44;;;;;;;2.42;2.30;;;;;;;;;;5031837;28;20169;-63
2020/12/01 00:09:10;;;;;;;3.03;2.83;;;;;;;;;;5032544;28;20667;-63
2020/12/01 00:11:36;;;;;;;3.03;2.78;;;;;;;;;;5032781;28;20267;-63
2020/12/01 00:14:02;;;;;;;2.85;2.65;;;;;;;;;;5032685;28;20269;-63
2020/12/01 00:16:28;;;;;;;1.13;1.13;;;;;;;;;;5032513;28;20569;-62
2020/12/01 00:18:54;;;;;;;9.18;2.95;;;;;;;;;;5032328;28;20177;-63
2020/12/01 00:21:21;;;;;;;2.65;2.47;;;;;;;;;;5032413;28;20196;-63
2020/12/01 00:23:47;;;;;;;3.65;3.45;;;;;;;;;;5032479;28;20179;-62
2020/12/01 00:26:17;;;;;;;1.60;1.50;;;;;;;;;;5032311;28;20200;-62
2020/12/01 00:28:43;;;;;;;1.65;1.65;;;;;;;;;;5032571;28;20176;-62
2020/12/01 00:31:09;;;;;;;3.22;3.03;;;;;;;;;;5032196;28;20191;-62
2020/12/01 00:33:35;;;;;;;2.28;2.08;;;;;;;;;;5032647;28;20672;-62
2020/12/01 00:36:01;;;;;;;3.28;2.95;;;;;;;;;;5032104;28;20633;-62
2020/12/01 00:38:27;;;;;;;3.00;2.80;;;;;;;;;;5032245;28;20168;-63
2020/12/01 00:40:53;;;;;;;1.90;1.80;;;;;;;;;;5031934;28;20226;-63
2020/12/01 00:43:19;;;;;;;2.17;2.08;;;;;;;;;;5032194;28;20694;-62
2020/12/01 00:45:46;;;;;;;1.73;1.73;;;;;;;;;;5030748;28;20204;-62
2020/12/01 00:48:13;;;;;;;2.38;2.28;;;;;;;;;;5032093;28;20177;-63
2020/12/01 00:50:39;;;;;;;0.60;0.60;;;;;;;;;;5031783;28;20207;-63
2020/12/01 00:53:05;;;;;;;3.50;1.35;;;;;;;;;;5032164;28;20208;-62
2020/12/01 00:55:31;;;;;;;1.08;1.08;;;;;;;;;;5031957;28;20199;-63
2020/12/01 00:57:57;;;;;;;1.65;1.50;;;;;;;;;;5031987;28;20177;-63
2020/12/01 01:00:25;;;;;;;1.63;1.52;;;;;;;;;;5031710;28;20176;-62
2020/12/01 01:02:51;;;;;;;1.65;1.48;;;;;;;;;;5031827;28;20214;-63
2020/12/01 01:05:18;;;;;;;1.45;1.35;;;;;;;;;;5031806;28;20275;-63
2020/12/01 01:07:44;;;;;;;1.63;1.55;;;;;;;;;;5032031;28;20180;-63
2020/12/01 01:10:24;;;;;;;2.67;2.08;;;;;;;;;;5031607;28;20177;-63
2020/12/01 01:12:50;;;;;;;2.88;2.65;;;;;;;;;;5031715;28;20204;-63
2020/12/01 01:15:16;;;;;;;1.55;1.52;;;;;;;;;;5031841;28;20714;-63
2020/12/01 01:17:42;;;;;;;2.08;2.08;;;;;;;;;;5031504;28;20180;-63
2020/12/01 01:20:10;;;;;;;1.50;1.50;;;;;;;;;;5031444;28;20179;-63
2020/12/01 01:22:36;;;;;;;2.03;1.98;;;;;;;;;;5031681;28;20250;-63
2020/12/01 01:25:02;;;;;;;1.15;1.05;;;;;;;;;;5031673;28;20195;-63
2020/12/01 01:27:28;;;;;;;1.00;1.00;;;;;;;;;;5031717;28;20175;-63
2020/12/01 01:29:54;;;;;;;1.75;1.60;;;;;;;;;;5031373;28;20176;-63
2020/12/01 01:32:20;;;;;;;1.25;1.25;;;;;;;;;;5031421;28;20175;-63
2020/12/01 01:34:46;;;;;;;2.30;2.10;;;;;;;;;;5062023;22;20212;31
2020/12/01 01:37:12;;;;;;;1.07;1.07;;;;;;;;;;4969926;28;20513;-63
2020/12/01 01:39:38;;;;;;;2.58;2.47;;;;;;;;;;4971901;28;20403;-64
2020/12/01 01:42:05;;;;;;;1.17;1.17;;;;;;;;;;4972636;28;20201;-62
2020/12/01 01:44:31;;;;;;;1.00;1.00;;;;;;;;;;4972831;28;20193;-64
2020/12/01 01:47:16;;;;;;;2.38;2.17;;;;;;;;;;4972630;28;20196;-64
2020/12/01 01:49:42;;;;;;;2.05;1.95;;;;;;;;;;4972411;28;20178;-62
2020/12/01 01:52:13;;;;;;;0.70;0.70;;;;;;;;;;4973294;28;20174;-64
2020/12/01 01:54:40;;;;;;;3.03;2.83;;;;;;;;;;4973609;28;20179;-62
2020/12/01 01:57:06;;;;;;;2.42;2.22;;;;;;;;;;4973134;28;20217;-65
2020/12/01 01:59:33;;;;;;;1.00;1.00;;;;;;;;;;4972444;28;20183;-65
2020/12/01 02:02:00;;;;;;;2.92;2.72;;;;;;;;;;4972405;28;20792;-65
2020/12/01 02:04:26;;;;;;;2.05;1.95;;;;;;;;;;4972356;28;20273;-66
2020/12/01 02:06:53;;;;;;;3.42;2.97;;;;;;;;;;4973368;28;20264;-65
2020/12/01 02:09:22;;;;;;;1.42;1.42;;;;;;;;;;4973288;28;20255;-64
2020/12/01 02:11:48;;;;;;;3.67;3.58;;;;;;;;;;4973043;28;20644;-63
2020/12/01 02:14:17;;;;;;;1.00;1.00;;;;;;;;;;4972677;28;20187;-65
2020/12/01 02:17:03;;;;;;;2.60;2.50;;;;;;;;;;4972538;28;20216;-65
2020/12/01 02:19:30;;;;;;;2.63;2.53;;;;;;;;;;4965251;28;20280;-65
2020/12/01 02:21:57;;;;;;;2.70;2.60;;;;;;;;;;4972464;28;20242;-65
2020/12/01 02:24:27;;;;;;;1.08;1.08;;;;;;;;;;4972255;28;20178;-65
2020/12/01 02:26:54;;;;;;;1.58;1.20;;;;;;;;;;4972373;28;20281;-65
2020/12/01 02:29:22;;;;;;;1.55;1.55;;;;;;;;;;4973611;28;20175;-65
2020/12/01 02:31:48;;;;;;;2.00;1.90;;;;;;;;;;4975793;28;20755;-65
2020/12/01 02:34:15;;;;;;;4.10;3.13;;;;;;;;;;4975723;28;20175;-66
2020/12/01 02:36:41;;;;;;;2.30;2.20;;;;;;;;;;4975627;28;20305;-63
2020/12/01 02:39:08;;;;;;;6.25;3.28;;;;;;;;;;4975341;28;20190;-66
2020/12/01 02:41:34;;;;;;;4.13;2.67;;;;;;;;;;4975645;28;20246;-64
2020/12/01 02:44:00;;;;;;;2.70;2.60;;;;;;;;;;4975615;28;20210;-66
2020/12/01 02:46:34;;;;;;;12.00;3.83;;;;;;;;;;4975491;28;20187;-65
2020/12/01 02:49:00;;;;;;;2.10;2.00;;;;;;;;;;4975252;28;20190;-64
2020/12/01 02:51:26;;;;;;;2.03;1.92;;;;;;;;;;4975410;28;20638;-64
2020/12/01 02:53:52;;;;;;;2.58;2.38;;;;;;;;;;4975499;28;20205;-65
2020/12/01 02:56:18;;;;;;;5.18;1.23;;;;;;;;;;4975310;28;20194;-65
2020/12/01 02:58:44;;;;;;;1.98;1.88;;;;;;;;;;4975448;28;20654;-61
2020/12/01 03:01:10;;;;;;;1.95;1.60;;;;;;;;;;4975157;28;20187;-64
2020/12/01 03:03:36;;;;;;;1.33;1.33;;;;;;;;;;4975226;28;20167;-65
2020/12/01 03:06:06;;;;;;;3.42;2.90;;;;;;;;;;4975874;28;20692;-65
2020/12/01 03:08:32;;;;;;;2.60;1.52;;;;;;;;;;4975878;28;20167;-63
2020/12/01 03:10:58;;;;;;;0.90;0.90;;;;;;;;;;4975062;28;20174;-66
2020/12/01 03:13:24;;;;;;;1.63;1.53;;;;;;;;;;4975088;28;20202;-65
2020/12/01 03:15:51;;;;;;;1.52;1.42;;;;;;;;;;4974936;28;20473;-64
2020/12/01 03:18:17;;;;;;;0.65;0.65;;;;;;;;;;4974956;28;20594;-66
2020/12/01 03:20:43;;;;;;;2.28;2.17;;;;;;;;;;4974594;28;20179;-65
2020/12/01 03:23:09;;;;;;;2.27;2.10;;;;;;;;;;4974819;28;20230;-65
2020/12/01 03:25:35;;;;;;;1.07;1.07;;;;;;;;;;4974797;28;20439;-64
2020/12/01 03:28:01;;;;;;;1.67;1.57;;;;;;;;;;4974915;28;20785;-66
2020/12/01 03:30:26;;;;;;;2.25;2.05;;;;;;;;;;4974468;28;20470;-64
2020/12/01 03:32:52;;;;;;;1.00;1.00;;;;;;;;;;4974693;28;20721;-65
2020/12/01 03:35:18;;;;;;;1.35;1.25;;;;;;;;;;4974400;28;20453;-65
2020/12/01 03:37:44;;;;;;;0.68;0.68;;;;;;;;;;4974728;28;20199;-65
2020/12/01 03:40:10;;;;;;;0.80;0.80;;;;;;;;;;4974169;28;20646;-63
2020/12/01 03:42:37;;;;;;;1.50;1.40;;;;;;;;;;4974459;28;20458;-65
2020/12/01 03:45:03;;;;;;;2.15;0.95;;;;;;;;;;4974484;28;20676;-64
2020/12/01 03:47:29;;;;;;;1.65;1.15;;;;;;;;;;4974421;28;20210;-64
2020/12/01 03:49:55;;;;;;;0.75;0.75;;;;;;;;;;4974124;28;20209;-66
2020/12/01 03:52:21;;;;;;;1.10;1.10;;;;;;;;;;4974409;28;20209;-64
2020/12/01 03:54:47;;;;;;;3.30;2.53;;;;;;;;;;4974314;28;20662;-65
2020/12/01 03:57:13;;;;;;;0.75;0.75;;;;;;;;;;4975169;28;20177;-65
2020/12/01 03:59:39;;;;;;;1.00;1.00;;;;;;;;;;4974675;28;20175;-65
2020/12/01 04:02:05;;;;;;;1.63;1.52;;;;;;;;;;4975122;28;20451;-65
2020/12/01 04:04:31;;;;;;;2.67;2.58;;;;;;;;;;4974653;28;20709;-64
2020/12/01 04:06:57;;;;;;;2.17;1.90;;;;;;;;;;4974692;28;20195;-65
2020/12/01 04:09:24;;;;;;;1.65;1.35;;;;;;;;;;4974420;28;20174;-66
2020/12/01 04:11:50;;;;;;;1.90;1.88;;;;;;;;;;4974031;28;20178;-66
2020/12/01 04:14:17;;;;;;;1.27;1.25;;;;;;;;;;4973962;28;20202;-66
2020/12/01 04:16:43;;;;;;;1.15;1.10;;;;;;;;;;4973789;28;20202;-66
2020/12/01 04:19:09;;;;;;;1.00;1.00;;;;;;;;;;4973667;28;20976;-66
2020/12/01 04:21:35;;;;;;;1.15;1.02;;;;;;;;;;4973924;28;20210;-66
2020/12/01 04:24:01;;;;;;;0.85;0.85;;;;;;;;;;4973789;28;20209;-66
2020/12/01 04:26:27;;;;;;;4.78;3.60;;;;;;;;;;4974128;28;20223;-65
2020/12/01 04:28:53;;;;;;;2.00;0.98;;;;;;;;;;4973995;28;20677;-65
2020/12/01 04:31:19;;;;;;;2.45;2.38;;;;;;;;;;4974569;28;20191;-65
2020/12/01 04:33:45;;;;;;;1.05;1.05;;;;;;;;;;4974410;28;20190;-65
2020/12/01 04:36:11;;;;;;;1.08;1.08;;;;;;;;;;4974059;28;20218;-65
2020/12/01 04:38:37;;;;;;;0.93;0.93;;;;;;;;;;4974323;28;20686;-66
2020/12/01 04:41:04;;;;;;;1.30;1.30;;;;;;;;;;4973279;28;20214;-64
2020/12/01 04:43:35;;;;;;;0.70;0.70;;;;;;;;;;4973455;28;20178;-66
2020/12/01 04:46:01;;;;;;;0.75;0.75;;;;;;;;;;4973350;28;20622;-66
2020/12/01 04:48:27;;;;;;;0.85;0.85;;;;;;;;;;4973422;28;20178;-65
2020/12/01 04:50:57;;;;;;;1.10;1.10;;;;;;;;;;4973888;28;20558;-65
2020/12/01 04:53:33;;;;;;;2.05;1.95;;;;;;;;;;4974159;28;20449;-65
2020/12/01 04:56:07;;;;;;;7.25;3.53;;;;;;;;;;4973808;28;20288;-63
2020/12/01 04:58:39;;;;;;;0.88;0.88;;;;;;;;;;4973159;28;20272;-66
2020/12/01 05:01:24;;;;;;;1.23;1.23;;;;;;;;;;4972885;28;20182;-65
2020/12/01 05:03:53;;;;;;;1.60;1.50;;;;;;;;;;4973235;28;20190;-65
2020/12/01 05:09:43;;;;;;;2.53;2.42;;;;;;;;;;4973164;28;20178;-67
2020/12/01 05:12:19;;;;;;;2.03;1.95;;;;;;;;;;4972885;28;20195;-67
2020/12/01 05:14:51;;;;;;;1.65;1.65;;;;;;;;;;4973041;28;20290;-65
2020/12/01 05:17:36;;;;;;;2.53;2.33;;;;;;;;;;4973071;28;20240;-66
2020/12/01 05:20:02;;;;;;;0.60;0.60;;;;;;;;;;4973035;28;20175;-66
2020/12/01 05:22:28;;;;;;;0.93;0.93;;;;;;;;;;4971594;28;20211;-66
2020/12/01 05:24:54;;;;;;;4.30;4.20;;;;;;;;;;4972807;28;20250;-66
2020/12/01 05:27:22;;;;;;;1.45;1.25;;;;;;;;;;4972937;28;20446;-66
2020/12/01 05:29:56;;;;;;;2.10;2.00;;;;;;;;;;4972659;28;20610;-65
2020/12/01 05:32:26;;;;;;;6.00;2.35;;;;;;;;;;4973183;28;20181;-65
2020/12/01 05:34:52;;;;;;;2.00;1.98;;;;;;;;;;4972740;28;20651;-64
2020/12/01 05:37:18;;;;;;;2.65;2.45;;;;;;;;;;4973135;28;20555;-65
2020/12/01 05:39:45;;;;;;;0.98;0.98;;;;;;;;;;4972490;28;20690;-65
2020/12/01 05:42:19;;;;;;;4.15;3.42;;;;;;;;;;4972740;28;20342;-66
2020/12/01 05:44:55;;;;;;;1.30;1.10;;;;;;;;;;4973103;28;20524;-63
2020/12/01 05:47:23;;;;;;;1.60;1.50;;;;;;;;;;4973436;28;20175;-65
2020/12/01 05:49:52;;;;;;;1.58;1.58;;;;;;;;;;4972710;28;20210;-66
2020/12/01 05:52:28;;;;;;;0.82;0.82;;;;;;;;;;4972774;28;20708;-65
2020/12/01 05:55:11;;;;;;;0.88;0.88;;;;;;;;;;4972616;28;20186;-65
2020/12/01 05:57:37;;;;;;;3.45;2.40;;;;;;;;;;4972783;28;20230;-65
2020/12/01 06:00:23;;;;;;;1.80;1.80;;;;;;;;;;4972571;28;20313;-66
2020/12/01 06:03:09;;;;;;;1.45;1.33;;;;;;;;;;4973012;28;20818;-65
2020/12/01 06:05:37;;;;;;;1.50;1.50;;;;;;;;;;4976382;28;20194;-63
2020/12/01 06:08:18;;;;;;;0.98;0.98;;;;;;;;;;4976984;28;20226;-65
2020/12/01 06:10:48;;;;;;;3.15;2.28;;;;;;;;;;4976566;28;20194;-65
2020/12/01 06:13:33;;;;;;;2.25;2.17;;;;;;;;;;4977311;28;20519;-65
2020/12/01 06:16:02;;;;;;;0.98;0.98;;;;;;;;;;4976915;28;20229;-65
2020/12/01 06:18:35;;;;;;;2.03;2.03;;;;;;;;;;4976073;28;20180;-65
2020/12/01 06:21:06;;;;;;;1.15;1.15;;;;;;;;;;4976107;28;20183;-66
2020/12/01 06:23:44;;;;;;;0.73;0.73;;;;;;;;;;4976347;28;20234;-66
2020/12/01 06:26:21;;;;;;;0.88;0.88;;;;;;;;;;4974340;28;20241;-65
2020/12/01 06:29:06;;;;;;;1.13;1.13;;;;;;;;;;4975980;28;20240;-62
2020/12/01 06:31:34;;;;;;;1.75;1.75;;;;;;;;;;4975977;28;20217;-65
2020/12/01 06:34:00;;;;;;;2.40;2.20;;;;;;;;;;4974250;28;20186;-65
2020/12/01 06:36:45;;;;;;;0.80;0.80;;;;;;;;;;4973908;28;20590;-65
2020/12/01 06:39:17;;;;;;;1.40;1.35;;;;;;;;;;4975337;28;21004;-65
2020/12/01 06:41:54;;;;;;;4.90;2.40;;;;;;;;;;4975069;28;20210;-66
2020/12/01 06:44:21;;;;;;;0.90;0.90;;;;;;;;;;4975538;28;20294;-65
2020/12/01 06:46:54;;;;;;;1.02;1.02;;;;;;;;;;4975429;28;20779;-64
2020/12/01 06:49:28;;;;;;;0.70;0.70;;;;;;;;;;4974374;28;20211;-64
2020/12/01 06:51:56;;;;;;;1.48;1.48;;;;;;;;;;4975218;28;20179;-66
2020/12/01 06:54:22;;;;;;;0.85;0.85;;;;;;;;;;4974843;28;20186;-64
2020/12/01 06:57:05;;;;;;;0.65;0.65;;;;;;;;;;4975005;28;20286;-65
2020/12/01 06:59:31;;;;;;;1.02;1.02;;;;;;;;;;4974683;28;20262;-65
2020/12/01 07:02:15;;;;;;;1.20;1.20;;;;;;;;;;4974606;28;20262;-64
2020/12/01 07:04:41;;;;;;;1.58;1.58;;;;;;;;;;4975528;28;20209;-65
2020/12/01 07:07:19;;;;;;;1.05;1.05;;;;;;;;;;4974740;28;20230;-65
2020/12/01 07:09:47;;;;;;;0.63;0.63;;;;;;;;;;4966959;28;20183;-63
2020/12/01 07:12:13;;;;;;;1.40;1.40;;;;;;;;;;4974961;28;20171;-65
2020/12/01 07:14:41;;;;;;;3.60;2.78;;;;;;;;;;4974525;28;20190;-63
2020/12/01 07:17:33;;;;;;;3.08;2.90;;;;;;;;;;4973951;28;20206;-65
2020/12/01 07:20:07;;;;;;;1.15;1.15;;;;;;;;;;4947675;28;20667;-64
2020/12/01 07:22:33;;;;;;;1.55;1.45;;;;;;;;;;4971167;28;20203;-65
2020/12/01 07:25:11;;;;;;;1.97;1.87;;;;;;;;;;4974957;28;20550;-65
2020/12/01 07:27:37;;;;;;;1.13;1.02;;;;;;;;;;4974401;28;20919;-64
2020/12/01 07:30:15;;;;;;;0.60;0.60;;;;;;;;;;4974244;28;20248;-65
2020/12/01 07:32:47;;;;;;;1.25;1.25;;;;;;;;;;4974050;28;20436;-65
2020/12/01 07:35:31;;;;;;;1.45;1.45;;;;;;;;;;4957055;28;20215;-65
2020/12/01 07:38:27;;;;;;;0.95;0.95;;;;;;;;;;5030837;23;20235;-63
2020/12/01 07:40:54;;;;;;;0.70;0.70;;;;;;;;;;5003728;28;20201;-63
2020/12/01 07:43:21;;;;;;;0.90;0.90;;;;;;;;;;5012102;28;20313;-63
2020/12/01 07:45:48;;;;;;;1.10;1.10;;;;;;;;;;5011736;28;21004;-63
2020/12/01 07:48:16;;;;;;;1.67;1.58;;;;;;;;;;4994611;28;20239;-63
2020/12/01 07:50:42;;;;;;;1.98;1.20;;;;;;;;;;4992944;28;20175;-63
2020/12/01 07:53:10;;;;;;;1.00;1.00;;;;;;;;;;4993158;28;20244;-63
2020/12/01 07:55:38;;;;;;;2.45;1.15;;;;;;;;;;4993307;28;20650;-62
2020/12/01 07:58:06;;;;;;;1.98;1.88;;;;;;;;;;4991981;28;20866;-63
2020/12/01 08:00:32;;;;;;;1.48;1.40;;;;;;;;;;4993114;28;20574;-63
2020/12/01 08:03:00;;;;;;;1.10;1.10;;;;;;;;;;4992218;28;20209;-63
2020/12/01 08:05:26;;;;;;;2.28;2.17;;;;;;;;;;4993249;28;20277;-64
2020/12/01 08:07:56;;;;;;;0.93;0.93;;;;;;;;;;4993031;28;20677;-64
2020/12/01 08:10:23;;;;;;;2.50;1.25;;;;;;;;;;4992809;28;20173;-64
2020/12/01 08:12:50;;;;;;;1.00;1.00;;;;;;;;;;5002910;28;20184;-63
2020/12/01 08:15:17;;;;;;;2.10;1.95;;;;;;;;;;5000739;28;20203;-63
2020/12/01 08:17:43;;;;;;;3.00;2.72;;;;;;;;;;5012252;28;20193;-64
2020/12/01 08:20:12;;;;;;;0.80;0.80;;;;;;;;;;4994705;28;20688;-62
2020/12/01 08:22:39;;;;;;;0.93;0.80;;;;;;;;;;4992338;28;20210;-63
2020/12/01 08:25:08;;;;;;;2.47;1.13;;;;;;;;;;4992647;28;20228;-63
2020/12/01 08:27:41;;;;;;;1.58;1.48;;;;;;;;;;4991980;28;20182;-64
2020/12/01 08:30:08;;;;;;;2.40;1.65;;;;;;;;;;4991387;28;20179;-64
2020/12/01 08:32:36;;;;;;;0.65;0.65;;;;;;;;;;5000687;28;20181;-63
2020/12/01 08:35:20;;;;;;;2.20;2.10;;;;;;;;;;4991008;28;20265;-65
2020/12/01 08:38:05;;;;;;;1.13;1.10;;;;;;;;;;4992325;28;20736;-65
2020/12/01 08:40:39;;;;;;;1.98;1.88;;;;;;;;;;5002942;28;20190;-65
2020/12/01 08:43:24;;;;;;;1.23;1.23;;;;;;;;;;4992775;28;20303;-65
2020/12/01 08:46:09;;;;;;;0.85;0.85;;;;;;;;;;5009779;28;20178;-65
2020/12/01 08:48:45;;;;;;;1.05;1.05;;;;;;;;;;5010732;28;20223;-65
2020/12/01 08:51:14;;;;;;;0.80;0.80;;;;;;;;;;5012019;28;20589;-64
2020/12/01 08:54:07;;;;;;;0.73;0.60;;;;;;;;;;5012052;28;20166;-65
2020/12/01 08:56:50;;;;;;;1.80;1.80;;;;;;;;;;5003816;28;20213;-65
2020/12/01 08:59:23;;;;;;;3.00;2.88;;;;;;;;;;4990889;28;20173;-65
2020/12/01 09:01:49;;;;;;;1.63;1.23;;;;;;;;;;5000117;28;20218;-65
2020/12/01 09:04:19;;;;;;;1.00;1.00;;;;;;;;;;5001933;28;20177;-65
2020/12/01 09:06:45;;;;;;;2.83;2.63;;;;;;;;;;5002693;28;20214;-65
2020/12/01 09:09:26;;;;;;;2.25;1.15;;;;;;;;;;5000473;28;20208;-65
2020/12/01 09:17:20;;;;;;;2.15;2.05;;;;;;;;;;4995338;28;20681;-65
2020/12/01 09:20:09;;;;;;;1.50;1.30;;;;;;;;;;4999889;28;20170;-65
2020/12/01 09:22:36;;;;;;;1.05;1.05;;;;;;;;;;5007789;28;20189;-65
2020/12/01 09:25:06;;;;;;;1.10;1.10;;;;;;;;;;5016235;28;20180;-64
2020/12/01 09:27:34;;;;;;;0.80;0.80;;;;;;;;;;5000226;28;20213;-64
2020/12/01 09:30:00;;;;;;;2.55;1.35;;;;;;;;;;4992122;28;20170;-64
2020/12/01 09:32:26;;;;;;;2.28;2.15;;;;;;;;;;4992468;28;20550;-64
2020/12/01 09:34:52;;;;;;;4.15;3.95;;;;;;;;;;5011845;28;20216;-65
2020/12/01 09:37:19;;;;;;;0.73;0.73;;;;;;;;;;5011929;28;20300;-64
2020/12/01 09:39:46;;;;;;;1.95;1.85;;;;;;;;;;5015687;28;20177;-64
2020/12/01 09:47:20;;;;;;;0.95;0.95;;;;;;;;;;5015410;28;20193;-65
2020/12/01 09:49:46;;;;;;;2.78;2.58;;;;;;;;;;5015329;28;20173;-64
2020/12/01 09:52:20;;;;;;;2.47;2.25;;;;;;;;;;5015223;28;20251;-65
2020/12/01 09:55:01;;;;;;;3.65;3.35;;;;;;;;;;5014976;28;20585;-64
2020/12/01 09:57:43;;;;;;;3.38;0.95;;;;;;;;;;5014083;28;20677;-64
2020/12/01 10:07:33;;;;;;;1.70;1.58;;;;;;;;;;5014583;28;20449;-64
2020/12/01 10:11:26;;;;;;;0.65;0.65;;;;;;;;;;5014791;28;20216;-64
2020/12/01 10:17:27;;;;;;;1.92;1.25;;;;;;;;;;5014199;28;20847;-64
2020/12/01 10:25:24;;;;;;;1.52;1.48;;;;;;;;;;5015312;28;20445;-64
2020/12/01 10:31:32;;;;;;;0.98;0.98;;;;;;;;;;5014303;28;20548;-64
2020/12/01 10:36:02;;;;;;;1.05;1.05;;;;;;;;;;4992777;28;20213;-64
2020/12/01 10:38:29;;;;;;;0.70;0.70;;;;;;;;;;4992646;28;20198;-64
2020/12/01 10:40:56;;;;;;;0.60;0.60;;;;;;;;;;5003020;28;20236;-64
2020/12/01 10:43:22;;;;;;;1.20;1.20;;;;;;;;;;5014572;28;20232;-64
2020/12/01 10:45:48;;;;;;;1.23;1.23;;;;;;;;;;5014338;28;20172;-64
2020/12/01 10:48:14;;;;;;;1.50;1.40;;;;;;;;;;5014262;28;20190;-64
2020/12/01 10:50:40;;;;;;;2.08;1.98;;;;;;;;;;5012667;28;20174;-64
2020/12/01 10:53:06;;;;;;;1.63;1.52;;;;;;;;;;5014133;28;20188;-64
2020/12/01 10:55:32;;;;;;;1.00;1.00;;;;;;;;;;5014463;28;20216;-64
2020/12/01 10:57:59;;;;;;;1.58;1.48;;;;;;;;;;5009955;28;20704;-64
2020/12/01 11:00:26;;;;;;;1.67;1.58;;;;;;;;;;5001955;28;20182;-64
2020/12/01 11:02:53;;;;;;;1.35;1.00;;;;;;;;;;4994234;28;20300;-64
2020/12/01 11:05:23;;;;;;;0.90;0.90;;;;;;;;;;5011951;28;20170;-64
2020/12/01 11:07:49;;;;;;;0.98;0.98;;;;;;;;;;5013878;28;20564;-64
2020/12/01 11:10:16;;;;;;;1.08;1.08;;;;;;;;;;5013610;28;20179;-65
2020/12/01 11:12:42;;;;;;;2.42;2.22;;;;;;;;;;5013531;28;20181;-65
2020/12/01 11:15:09;;;;;;;2.50;2.47;;;;;;;;;;5013614;28;20173;-65
2020/12/01 11:17:35;;;;;;;1.00;0.90;;;;;;;;;;4995296;28;20257;-65
2020/12/01 11:20:01;;;;;;;1.40;1.33;;;;;;;;;;4993926;28;20593;-65
2020/12/01 11:22:27;;;;;;;1.40;1.40;;;;;;;;;;4993289;28;20202;-65
2020/12/01 11:24:53;;;;;;;1.08;1.08;;;;;;;;;;4993532;28;20175;-64
2020/12/01 11:27:19;;;;;;;1.02;1.02;;;;;;;;;;4992700;28;20194;-65
2020/12/01 11:29:45;;;;;;;3.65;1.25;;;;;;;;;;4993584;28;20190;-65
2020/12/01 11:32:11;;;;;;;2.13;1.67;;;;;;;;;;4994021;28;20261;-65
2020/12/01 11:34:37;;;;;;;0.53;0.53;;;;;;;;;;5012302;28;20279;-65
2020/12/01 11:37:03;;;;;;;1.38;1.35;;;;;;;;;;5012779;28;20456;-65
2020/12/01 11:39:29;;;;;;;1.53;1.30;;;;;;;;;;5013157;28;20177;-65
2020/12/01 11:41:55;;;;;;;1.15;1.15;;;;;;;;;;5012968;28;20456;-65
2020/12/01 11:44:21;;;;;;;3.00;2.67;;;;;;;;;;5013255;28;20174;-65
2020/12/01 11:46:47;;;;;;;1.50;1.50;;;;;;;;;;5012646;28;20194;-65
2020/12/01 11:49:13;;;;;;;1.23;1.23;;;;;;;;;;5012823;28;20177;-65
2020/12/01 11:51:41;;;;;;;1.52;1.52;;;;;;;;;;5012582;28;20596;-64
2020/12/01 11:54:11;;;;;;;1.90;1.77;;;;;;;;;;5012550;28;20236;-64
2020/12/01 11:56:37;;;;;;;1.90;1.80;;;;;;;;;;5012756;28;20198;-65
2020/12/01 11:59:03;;;;;;;1.33;1.33;;;;;;;;;;5012358;28;20239;-64
2020/12/01 12:01:29;;;;;;;0.93;0.93;;;;;;;;;;5013177;28;20823;-64
2020/12/01 12:03:55;;;;;;;0.60;0.60;;;;;;;;;;5009077;28;20205;-64
2020/12/01 12:06:21;;;;;;;1.33;1.23;;;;;;;;;;5002462;28;20225;-64
2020/12/01 12:08:47;;;;;;;2.20;2.13;;;;;;;;;;5001388;28;20420;-64
2020/12/01 12:11:14;;;;;;;3.13;2.97;;;;;;;;;;5002585;28;20178;-65
2020/12/01 12:13:40;;;;;;;0.90;0.82;;;;;;;;;;4997305;28;20189;-65
2020/12/01 12:16:06;;;;;;;0.80;0.80;;;;;;;;;;4998473;28;20240;-65
2020/12/01 12:18:32;;;;;;;0.80;0.80;;;;;;;;;;5001349;28;20184;-65
2020/12/01 12:20:58;;;;;;;0.80;0.80;;;;;;;;;;5002424;28;20182;-66
2020/12/01 12:23:24;;;;;;;1.08;1.08;;;;;;;;;;5012800;28;20198;-65
2020/12/01 12:25:51;;;;;;;1.50;1.50;;;;;;;;;;5012581;28;20253;-64
2020/12/01 12:28:17;;;;;;;0.90;0.90;;;;;;;;;;5012828;28;20229;-65
2020/12/01 12:30:45;;;;;;;1.77;1.65;;;;;;;;;;5011903;28;20595;-65
2020/12/01 12:33:11;;;;;;;1.27;1.27;;;;;;;;;;5012234;28;20215;-65
2020/12/01 12:35:37;;;;;;;2.80;2.63;;;;;;;;;;5012479;28;20296;-65
2020/12/01 12:38:03;;;;;;;1.70;1.70;;;;;;;;;;5012317;28;20238;-69
2020/12/01 12:40:29;;;;;;;2.15;2.08;;;;;;;;;;5012324;28;20668;-65
2020/12/01 12:42:55;;;;;;;0.90;0.90;;;;;;;;;;5012140;28;20371;-64
2020/12/01 12:45:21;;;;;;;1.77;1.23;;;;;;;;;;5012368;28;20256;-65
2020/12/01 12:47:47;;;;;;;0.93;0.93;;;;;;;;;;5012155;28;20192;-64
2020/12/01 12:50:13;;;;;;;1.20;1.20;;;;;;;;;;5011910;28;20163;-65
2020/12/01 12:52:39;;;;;;;0.80;0.80;;;;;;;;;;5011973;28;20212;-65
2020/12/01 12:55:06;;;;;;;5.15;3.28;;;;;;;;;;5011443;28;20205;-65
2020/12/01 12:57:32;;;;;;;2.90;2.45;;;;;;;;;;5012114;28;20205;-64
2020/12/01 12:59:58;;;;;;;1.67;1.58;;;;;;;;;;5011812;28;20180;-65
2020/12/01 13:02:24;;;;;;;2.30;2.20;;;;;;;;;;5011962;28;20608;-65
2020/12/01 13:04:50;;;;;;;2.63;2.45;;;;;;;;;;5011582;28;20421;-65
2020/12/01 13:07:16;;;;;;;2.95;1.90;;;;;;;;;;5011580;28;20234;-65
2020/12/01 13:09:42;;;;;;;1.90;1.73;;;;;;;;;;5011767;28;20212;-64
2020/12/01 13:12:08;;;;;;;1.35;1.35;;;;;;;;;;5011712;28;20416;-65
2020/12/01 13:14:34;;;;;;;1.27;1.23;;;;;;;;;;5011874;28;20184;-65
2020/12/01 13:17:00;;;;;;;1.27;1.27;;;;;;;;;;5011191;28;20287;-65
2020/12/01 13:19:26;;;;;;;1.45;1.40;;;;;;;;;;5011229;28;20516;-65
2020/12/01 13:21:52;;;;;;;1.33;1.33;;;;;;;;;;5011169;28;20276;-65
2020/12/01 13:24:19;;;;;;;1.33;1.15;;;;;;;;;;5011464;28;20929;-65
2020/12/01 13:26:45;;;;;;;1.90;1.80;;;;;;;;;;5011121;28;20200;-65
2020/12/01 13:29:11;;;;;;;2.53;2.43;;;;;;;;;;5009515;28;20788;-65
2020/12/01 13:31:37;;;;;;;2.17;2.08;;;;;;;;;;4999361;28;20500;-65
2020/12/01 13:34:03;;;;;;;1.25;1.25;;;;;;;;;;5011641;28;20181;-65
2020/12/01 13:39:09;;;;;;;2.17;2.03;;;;;;;;;;5042223;28;20213;-66
2020/12/01 13:41:35;;;;;;;1.60;1.60;;;;;;;;;;5042442;28;20593;-66
2020/12/01 13:44:02;;;;;;;1.53;1.53;;;;;;;;;;5031777;28;20180;-66
2020/12/01 13:46:28;;;;;;;0.77;0.77;;;;;;;;;;5045832;28;20933;-66
2020/12/01 13:48:53;;;;;;;2.10;1.95;;;;;;;;;;5034204;28;20233;-65
2020/12/01 13:51:20;;;;;;;1.97;1.87;;;;;;;;;;5031522;28;20173;-68
2020/12/01 13:53:46;;;;;;;1.70;1.60;;;;;;;;;;5031382;28;20464;-68
2020/12/01 13:56:12;;;;;;;6.47;5.82;;;;;;;;;;5031008;28;20180;-68
2020/12/01 13:58:38;;;;;;;2.25;2.05;;;;;;;;;;5030969;28;20676;-68
2020/12/01 14:01:04;;;;;;;1.55;1.55;;;;;;;;;;5029226;28;20227;-67
2020/12/01 14:03:30;;;;;;;1.27;1.17;;;;;;;;;;5031534;28;20233;-67
2020/12/01 14:05:56;;;;;;;1.15;1.15;;;;;;;;;;5031062;28;20839;-67
2020/12/01 14:08:22;;;;;;;2.00;1.23;;;;;;;;;;5029718;28;20197;-67
2020/12/01 14:10:48;;;;;;;0.60;0.60;;;;;;;;;;5030929;28;20469;-67
2020/12/01 14:13:14;;;;;;;3.15;2.95;;;;;;;;;;5030791;28;20205;-68
2020/12/01 14:15:40;;;;;;;1.08;1.08;;;;;;;;;;5030874;28;20183;-68
2020/12/01 14:18:06;;;;;;;1.90;1.55;;;;;;;;;;5034246;28;20192;-68
2020/12/01 14:20:32;;;;;;;1.85;1.85;;;;;;;;;;5049337;28;20187;-68
2020/12/01 14:22:59;;;;;;;1.90;1.45;;;;;;;;;;5048546;28;20595;-68
2020/12/01 14:25:25;;;;;;;1.00;1.00;;;;;;;;;;5051123;28;20176;-67
2020/12/01 14:27:51;;;;;;;2.03;2.03;;;;;;;;;;5045727;28;20240;-69
2020/12/01 14:30:19;;;;;;;0.83;0.83;;;;;;;;;;5034045;28;20243;-70
2020/12/01 14:32:45;;;;;;;2.33;2.20;;;;;;;;;;5030210;28;20448;-69
2020/12/01 14:35:13;;;;;;;1.33;1.33;;;;;;;;;;5014006;28;20178;-69
2020/12/01 14:37:39;;;;;;;1.55;1.45;;;;;;;;;;5014402;28;20217;-69
2020/12/01 14:40:07;;;;;;;2.35;1.88;;;;;;;;;;5013883;28;20210;-69
2020/12/01 14:42:33;;;;;;;0.80;0.80;;;;;;;;;;5028561;28;20200;-69
2020/12/01 14:44:59;;;;;;;1.37;1.13;;;;;;;;;;5033683;28;20231;-69
2020/12/01 14:47:44;;;;;;;2.00;1.63;;;;;;;;;;5032697;28;20431;-69
2020/12/01 14:50:33;;;;;;;1.33;1.33;;;;;;;;;;5033240;28;20417;-69
2020/12/01 14:53:12;;;;;;;1.90;1.80;;;;;;;;;;5033403;28;20203;-69
2020/12/01 14:55:59;;;;;;;0.93;0.93;;;;;;;;;;5033741;28;20172;-69
2020/12/01 14:58:36;;;;;;;0.65;0.65;;;;;;;;;;5033470;28;20263;-69
2020/12/01 15:01:14;;;;;;;2.05;1.88;;;;;;;;;;5034071;28;20264;-68
2020/12/01 15:03:43;;;;;;;1.95;1.83;;;;;;;;;;5034669;28;20228;-69
2020/12/01 15:06:14;;;;;;;2.10;2.00;;;;;;;;;;5032592;28;20591;-69
2020/12/01 15:08:55;;;;;;;2.63;2.42;;;;;;;;;;5032660;28;20201;-68
2020/12/01 15:11:27;;;;;;;2.33;2.22;;;;;;;;;;5033160;28;20172;-69
2020/12/01 15:13:53;;;;;;;0.70;0.70;;;;;;;;;;5032699;28;20188;-69
2020/12/01 15:16:22;;;;;;;1.73;1.63;;;;;;;;;;5032769;28;20208;-69
2020/12/01 15:18:52;;;;;;;1.77;1.67;;;;;;;;;;5033018;28;20249;-67
2020/12/01 15:21:18;;;;;;;0.75;0.75;;;;;;;;;;5033994;28;20177;-69
2020/12/01 15:23:51;;;;;;;1.38;1.27;;;;;;;;;;5034236;28;20209;-66
2020/12/01 15:26:18;;;;;;;1.45;1.45;;;;;;;;;;5033686;28;20213;-67
2020/12/01 15:28:45;;;;;;;1.75;1.67;;;;;;;;;;5033972;28;20219;-68
2020/12/01 15:31:12;;;;;;;1.35;1.25;;;;;;;;;;5033386;28;20179;-68
2020/12/01 15:33:38;;;;;;;2.35;1.63;;;;;;;;;;5032546;28;20204;-67